sensor_id;sensor_type;location;lat;lon;timestamp;temperature;humidity
20162;DHT22;51382;53.180;15.414;2023-12-14T00:13:44;3.00;99.90
20162;DHT22;51382;53.180;15.414;2023-12-14T00:28:56;3.00;99.90
20162;DHT22;51382;53.180;15.414;2023-12-14T00:44:09;2.90;99.90
20162;DHT22;51382;53.180;15.414;2023-12-14T00:59:20;3.00;99.90
20162;DHT22;51382;53.180;15.414;2023-12-14T01:14:33;3.10;99.90
20162;DHT22;51382;53.180;15.414;2023-12-14T01:29:44;3.00;99.90
20162;DHT22;51382;53.180;15.414;2023-12-14T01:44:55;2.90;99.90
20162;DHT22;51382;53.180;15.414;2023-12-14T02:00:08;2.80;99.90
20162;DHT22;51382;53.180;15.414;2023-12-14T02:15:37;2.80;99.90
20162;DHT22;51382;53.180;15.414;2023-12-14T02:30:49;2.60;99.90
20162;DHT22;51382;53.180;15.414;2023-12-14T02:46:00;2.60;99.90
20162;DHT22;51382;53.180;15.414;2023-12-14T03:01:12;2.40;99.90
20162;DHT22;51382;53.180;15.414;2023-12-14T03:16:19;2.50;99.90
20162;DHT22;51382;53.180;15.414;2023-12-14T03:31:30;2.40;99.90
20162;DHT22;51382;53.180;15.414;2023-12-14T03:46:42;2.40;99.90
20162;DHT22;51382;53.180;15.414;2023-12-14T04:01:53;2.40;49.60
20162;DHT22;51382;53.180;15.414;2023-12-14T04:17:05;2.30;1.00
20162;DHT22;51382;53.180;15.414;2023-12-14T04:32:16;2.20;1.00
20162;DHT22;51382;53.180;15.414;2023-12-14T04:47:28;2.20;1.00
20162;DHT22;51382;53.180;15.414;2023-12-14T05:02:39;2.30;1.00
20162;DHT22;51382;53.180;15.414;2023-12-14T05:17:50;2.30;1.00
20162;DHT22;51382;53.180;15.414;2023-12-14T05:33:03;2.20;1.00
20162;DHT22;51382;53.180;15.414;2023-12-14T05:48:14;2.10;1.00
20162;DHT22;51382;53.180;15.414;2023-12-14T06:03:26;2.20;99.90
20162;DHT22;51382;53.180;15.414;2023-12-14T06:18:40;2.20;1.00
20162;DHT22;51382;53.180;15.414;2023-12-14T06:33:52;2.30;99.90
20162;DHT22;51382;53.180;15.414;2023-12-14T06:49:03;2.40;99.90
20162;DHT22;51382;53.180;15.414;2023-12-14T07:04:14;2.80;99.90
20162;DHT22;51382;53.180;15.414;2023-12-14T07:19:27;2.30;99.90
20162;DHT22;51382;53.180;15.414;2023-12-14T07:34:40;2.50;99.90
20162;DHT22;51382;53.180;15.414;2023-12-14T07:49:52;2.70;99.90
20162;DHT22;51382;53.180;15.414;2023-12-14T08:04:59;4.00;99.90
20162;DHT22;51382;53.180;15.414;2023-12-14T08:20:11;2.60;99.90
20162;DHT22;51382;53.180;15.414;2023-12-14T08:35:35;2.90;99.90
20162;DHT22;51382;53.180;15.414;2023-12-14T08:50:51;3.10;99.90
20162;DHT22;51382;53.180;15.414;2023-12-14T09:06:05;3.20;99.90
20162;DHT22;51382;53.180;15.414;2023-12-14T09:21:16;3.50;99.90
20162;DHT22;51382;53.180;15.414;2023-12-14T09:36:28;3.40;99.90
20162;DHT22;51382;53.180;15.414;2023-12-14T09:51:39;3.30;99.90
20162;DHT22;51382;53.180;15.414;2023-12-14T10:06:51;3.20;99.90
20162;DHT22;51382;53.180;15.414;2023-12-14T10:22:05;3.40;99.90
20162;DHT22;51382;53.180;15.414;2023-12-14T10:37:18;3.50;99.90
20162;DHT22;51382;53.180;15.414;2023-12-14T10:52:31;3.60;99.90
20162;DHT22;51382;53.180;15.414;2023-12-14T11:07:48;3.80;99.90
20162;DHT22;51382;53.180;15.414;2023-12-14T11:23:08;3.90;99.90
20162;DHT22;51382;53.180;15.414;2023-12-14T11:38:23;3.80;99.90
20162;DHT22;51382;53.180;15.414;2023-12-14T11:53:36;3.70;99.90
20162;DHT22;51382;53.180;15.414;2023-12-14T12:08:48;3.80;99.90
20162;DHT22;51382;53.180;15.414;2023-12-14T12:24:02;3.90;99.90
20162;DHT22;51382;53.180;15.414;2023-12-14T12:39:14;3.70;99.90
20162;DHT22;51382;53.180;15.414;2023-12-14T12:54:26;3.70;99.90
20162;DHT22;51382;53.180;15.414;2023-12-14T13:09:37;3.70;99.90
20162;DHT22;51382;53.180;15.414;2023-12-14T13:24:49;3.80;99.90
20162;DHT22;51382;53.180;15.414;2023-12-14T13:40:01;3.60;99.90
20162;DHT22;51382;53.180;15.414;2023-12-14T13:55:14;3.30;99.90
20162;DHT22;51382;53.180;15.414;2023-12-14T14:10:25;3.10;99.90
20162;DHT22;51382;53.180;15.414;2023-12-14T14:25:37;3.00;99.90
20162;DHT22;51382;53.180;15.414;2023-12-14T14:40:49;2.90;99.90
20162;DHT22;51382;53.180;15.414;2023-12-14T14:56:03;2.80;99.90
20162;DHT22;51382;53.180;15.414;2023-12-14T15:11:15;2.70;99.90
20162;DHT22;51382;53.180;15.414;2023-12-14T15:26:26;2.70;99.90
20162;DHT22;51382;53.180;15.414;2023-12-14T15:41:40;2.40;99.90
20162;DHT22;51382;53.180;15.414;2023-12-14T15:56:51;2.40;99.90
20162;DHT22;51382;53.180;15.414;2023-12-14T16:12:04;2.20;99.90
20162;DHT22;51382;53.180;15.414;2023-12-14T16:27:17;2.10;99.90
20162;DHT22;51382;53.180;15.414;2023-12-14T16:42:29;2.10;99.90
20162;DHT22;51382;53.180;15.414;2023-12-14T16:57:41;2.20;99.90
20162;DHT22;51382;53.180;15.414;2023-12-14T17:12:53;2.20;99.90
20162;DHT22;51382;53.180;15.414;2023-12-14T17:28:05;2.10;99.90
20162;DHT22;51382;53.180;15.414;2023-12-14T17:43:18;2.00;99.90
20162;DHT22;51382;53.180;15.414;2023-12-14T17:58:39;2.00;99.90
20162;DHT22;51382;53.180;15.414;2023-12-14T18:13:53;2.00;99.90
20162;DHT22;51382;53.180;15.414;2023-12-14T18:29:10;1.90;99.90
20162;DHT22;51382;53.180;15.414;2023-12-14T18:44:30;2.00;99.90
20162;DHT22;51382;53.180;15.414;2023-12-14T18:59:37;2.00;99.90
20162;DHT22;51382;53.180;15.414;2023-12-14T19:14:48;2.00;99.90
20162;DHT22;51382;53.180;15.414;2023-12-14T19:30:00;1.90;99.90
20162;DHT22;51382;53.180;15.414;2023-12-14T19:45:23;1.80;99.90
20162;DHT22;51382;53.180;15.414;2023-12-14T20:00:34;1.80;99.90
20162;DHT22;51382;53.180;15.414;2023-12-14T20:15:51;1.90;99.90
20162;DHT22;51382;53.180;15.414;2023-12-14T20:31:03;1.80;99.90
20162;DHT22;51382;53.180;15.414;2023-12-14T20:46:16;1.80;99.90
20162;DHT22;51382;53.180;15.414;2023-12-14T21:01:30;1.90;99.90
20162;DHT22;51382;53.180;15.414;2023-12-14T21:16:36;1.80;99.90
20162;DHT22;51382;53.180;15.414;2023-12-14T21:31:48;1.80;99.90
20162;DHT22;51382;53.180;15.414;2023-12-14T21:46:59;1.80;99.90
20162;DHT22;51382;53.180;15.414;2023-12-14T22:02:11;1.80;99.90
20162;DHT22;51382;53.180;15.414;2023-12-14T22:17:22;1.90;99.90
20162;DHT22;51382;53.180;15.414;2023-12-14T22:32:34;2.00;99.90
20162;DHT22;51382;53.180;15.414;2023-12-14T22:47:46;1.90;99.90
20162;DHT22;51382;53.180;15.414;2023-12-14T23:03:00;2.00;99.90
20162;DHT22;51382;53.180;15.414;2023-12-14T23:18:11;2.00;99.90
20162;DHT22;51382;53.180;15.414;2023-12-14T23:33:23;2.30;99.90
20162;DHT22;51382;53.180;15.414;2023-12-14T23:48:35;2.00;99.90
